Time;durP1;ratioP1;P1;durP2;ratioP2;P2;SDS_P1;SDS_P2;PMS_P1;PMS_P2;Temp;Humidity;BMP_temperature;BMP_pressure;BME280_temperature;BME280_humidity;BME280_pressure;Samples;Min_cycle;Max_cycle;Signal;HPM_P1;HPM_P2
2023/03/28 00:01:27;;;;;;;3.07;2.30;;;1.30;99.90;;;;;;4993460;28;20221;-73
2023/03/28 00:03:53;;;;;;;4.50;2.40;;;1.30;99.90;;;;;;4991665;28;20597;-74
2023/03/28 00:06:19;;;;;;;3.40;2.13;;;1.30;99.90;;;;;;4974122;28;20206;-73
2023/03/28 00:08:46;;;;;;;2.23;1.80;;;1.30;99.90;;;;;;4991276;28;20177;-75
2023/03/28 00:11:20;;;;;;;9.30;1.60;;;1.30;99.90;;;;;;4974363;28;20999;-74
2023/03/28 00:13:47;;;;;;;2.60;2.17;;;1.20;99.90;;;;;;4991086;28;20485;-74
2023/03/28 00:16:13;;;;;;;4.03;2.60;;;1.20;99.90;;;;;;4991196;28;20425;-74
2023/03/28 00:18:40;;;;;;;4.07;2.00;;;1.20;99.90;;;;;;4991403;28;20502;-74
2023/03/28 00:21:22;;;;;;;5.40;1.90;;;1.10;99.90;;;;;;4994927;28;20815;-74
2023/03/28 00:23:53;;;;;;;1.67;1.57;;;1.10;99.90;;;;;;4994581;28;20422;-74
2023/03/28 00:26:21;;;;;;;2.60;1.50;;;1.10;99.90;;;;;;4995003;28;21037;-74
2023/03/28 00:28:47;;;;;;;1.90;1.80;;;1.10;99.90;;;;;;4994801;28;20925;-74
2023/03/28 00:31:13;;;;;;;1.80;1.50;;;1.10;99.90;;;;;;4994546;28;20441;-74
2023/03/28 00:33:38;;;;;;;1.87;1.77;;;1.10;99.90;;;;;;4994510;28;20183;-74
2023/03/28 00:36:04;;;;;;;4.43;1.53;;;1.10;99.90;;;;;;4994431;28;20904;-73
2023/03/28 00:38:30;;;;;;;2.27;2.10;;;1.10;99.90;;;;;;4994702;28;20190;-73
2023/03/28 00:40:57;;;;;;;3.20;1.80;;;1.00;99.90;;;;;;4994198;28;20411;-74
2023/03/28 00:43:40;;;;;;;4.20;1.77;;;1.00;99.90;;;;;;4994446;28;20450;-73
2023/03/28 00:46:13;;;;;;;6.20;2.10;;;1.00;99.90;;;;;;4983733;28;20472;-73
2023/03/28 00:48:50;;;;;;;7.33;1.87;;;0.90;99.90;;;;;;4991401;28;20935;-73
2023/03/28 00:51:19;;;;;;;2.33;2.13;;;0.80;99.90;;;;;;4994296;28;20431;-75
2023/03/28 00:53:45;;;;;;;2.13;1.53;;;0.80;99.90;;;;;;4994281;28;20904;-73
2023/03/28 00:56:13;;;;;;;5.87;1.77;;;0.70;99.90;;;;;;4994057;28;20422;-73
2023/03/28 00:58:42;;;;;;;2.20;1.77;;;0.70;99.90;;;;;;4994090;28;20176;-73
2023/03/28 02:31:46;;;;;;;4.40;3.60;;;-0.20;99.90;;;;;;5529898;23;21016;-73
2023/03/28 02:34:11;;;;;;;2.80;2.60;;;-0.20;99.90;;;;;;5049470;28;20420;-72
2023/03/28 02:37:09;;;;;;;2.77;2.10;;;-0.30;99.90;;;;;;5051240;28;20455;-74
2023/03/28 02:40:10;;;;;;;4.17;2.60;;;-0.30;99.90;;;;;;5046663;28;20185;-73
2023/03/28 02:43:01;;;;;;;3.50;2.80;;;-0.30;99.90;;;;;;5040644;28;20809;-73
2023/03/28 02:45:58;;;;;;;4.30;2.97;;;-0.30;99.90;;;;;;5057153;28;20472;-74
2023/03/28 02:48:31;;;;;;;2.77;2.53;;;-0.40;99.90;;;;;;5065197;28;20388;-74
2023/03/28 02:51:22;;;;;;;4.50;2.47;;;-0.40;99.90;;;;;;5070560;28;20482;-73
2023/03/28 02:54:17;;;;;;;2.60;2.40;;;-0.40;99.90;;;;;;5062251;28;20387;-73
2023/03/28 02:57:04;;;;;;;2.90;2.63;;;-0.40;99.90;;;;;;5069816;28;20522;-73
2023/03/28 02:59:55;;;;;;;2.63;2.43;;;-0.50;99.90;;;;;;5070650;28;20480;-74
2023/03/28 03:02:21;;;;;;;4.53;2.83;;;-0.50;99.90;;;;;;5050298;28;20446;-73
2023/03/28 03:04:49;;;;;;;3.20;2.90;;;-0.50;99.90;;;;;;5067781;28;20430;-72
2023/03/28 03:07:16;;;;;;;3.30;3.00;;;-0.50;99.90;;;;;;5062864;28;20886;-74
2023/03/28 03:09:44;;;;;;;3.00;2.80;;;-0.50;99.90;;;;;;5062219;28;20425;-73
2023/03/28 03:12:10;;;;;;;4.20;3.00;;;-0.60;99.90;;;;;;5069362;28;20424;-73
2023/03/28 03:14:37;;;;;;;3.83;3.03;;;-0.60;99.90;;;;;;5062332;28;20458;-74
2023/03/28 03:17:04;;;;;;;6.00;3.47;;;-0.60;99.90;;;;;;5067604;28;20973;-73
2023/03/28 03:19:30;;;;;;;5.53;2.73;;;-0.60;99.90;;;;;;5057057;28;20436;-74
2023/03/28 03:21:56;;;;;;;3.30;3.07;;;-0.60;99.90;;;;;;5070344;28;20455;-75
2023/03/28 03:24:23;;;;;;;3.37;2.23;;;-0.70;99.90;;;;;;5070473;28;20432;-74
2023/03/28 03:26:49;;;;;;;4.70;3.50;;;-0.70;99.90;;;;;;5070096;28;20481;-74
2023/03/28 03:29:15;;;;;;;3.60;3.30;;;-0.70;99.90;;;;;;5066247;28;20437;-73
2023/03/28 03:31:40;;;;;;;6.30;3.23;;;-0.70;99.90;;;;;;5066558;28;20690;-73
2023/03/28 03:34:06;;;;;;;5.33;2.80;;;-0.70;99.90;;;;;;5070088;28;20190;-73
2023/03/28 03:36:31;;;;;;;3.93;3.17;;;-0.70;99.90;;;;;;5070857;28;20217;-75
2023/03/28 03:38:57;;;;;;;3.73;3.13;;;-0.70;99.90;;;;;;5068201;28;20270;-75
2023/03/28 03:41:23;;;;;;;4.80;2.73;;;-0.80;99.90;;;;;;5050886;28;20276;-74
2023/03/28 03:43:48;;;;;;;3.03;2.63;;;-0.80;99.90;;;;;;5058263;28;20297;-74
2023/03/28 03:46:14;;;;;;;4.07;3.67;;;-0.80;99.90;;;;;;5062628;28;20594;-75
2023/03/28 03:48:39;;;;;;;3.30;2.73;;;-0.80;99.90;;;;;;5070458;28;20262;-74
2023/03/28 03:51:06;;;;;;;3.83;2.70;;;-0.80;99.90;;;;;;5050601;28;20302;-74
2023/03/28 03:53:33;;;;;;;5.93;3.20;;;-0.80;99.90;;;;;;5064866;28;20546;-74
2023/03/28 03:56:00;;;;;;;4.60;3.57;;;-0.80;99.90;;;;;;5073979;28;20430;-73
2023/03/28 03:58:26;;;;;;;3.47;3.10;;;-0.80;99.90;;;;;;5074504;28;20506;-74
2023/03/28 04:00:51;;;;;;;6.10;3.70;;;-0.90;99.90;;;;;;5073835;28;20521;-74
2023/03/28 04:03:17;;;;;;;6.00;4.40;;;-0.90;99.90;;;;;;5074315;28;20272;-74
2023/03/28 04:05:42;;;;;;;7.53;3.13;;;-0.90;99.90;;;;;;5073941;28;20298;-74
2023/03/28 04:08:08;;;;;;;3.70;3.40;;;-1.00;99.90;;;;;;5065678;28;20185;-74
2023/03/28 04:10:33;;;;;;;5.27;3.30;;;-1.00;99.90;;;;;;5048946;28;20188;-74
2023/03/28 04:12:59;;;;;;;15.57;3.40;;;-1.00;99.90;;;;;;5071990;28;20193;-74
2023/03/28 04:15:24;;;;;;;4.13;2.93;;;-1.00;99.90;;;;;;5073928;28;20558;-74
2023/03/28 04:17:51;;;;;;;3.20;2.90;;;-1.10;99.90;;;;;;5046929;28;20202;-73
2023/03/28 04:20:17;;;;;;;5.93;3.17;;;-1.10;99.90;;;;;;5066339;28;20242;-73
2023/03/28 04:22:42;;;;;;;5.97;2.50;;;-1.10;99.90;;;;;;5066410;28;20425;-75
2023/03/28 04:25:08;;;;;;;3.97;3.63;;;-1.10;99.90;;;;;;5072767;28;20657;-76
2023/03/28 04:27:34;;;;;;;3.57;3.23;;;-1.10;99.90;;;;;;5073960;28;20263;-73
2023/03/28 04:30:00;;;;;;;4.63;2.60;;;-1.10;99.90;;;;;;5065081;28;20747;-73
2023/03/28 04:32:26;;;;;;;7.53;4.50;;;-1.10;99.90;;;;;;5047380;28;20210;-74
2023/03/28 04:34:51;;;;;;;9.90;3.47;;;-1.10;99.90;;;;;;5072997;28;20423;-73
2023/03/28 04:37:18;;;;;;;7.53;2.80;;;-1.10;99.90;;;;;;5073705;28;20189;-74
2023/03/28 04:39:46;;;;;;;8.17;3.07;;;-1.10;99.90;;;;;;5073506;28;20198;-73
2023/03/28 04:42:12;;;;;;;5.70;2.50;;;-1.10;99.90;;;;;;5073196;28;20854;-74
2023/03/28 04:44:38;;;;;;;2.50;2.20;;;-1.10;99.90;;;;;;5073536;28;20433;-72
2023/03/28 04:47:07;;;;;;;3.40;3.10;;;-1.10;99.90;;;;;;5064742;28;20435;-72
2023/03/28 04:49:33;;;;;;;3.20;3.00;;;-1.20;99.90;;;;;;5058097;28;20180;-72
2023/03/28 04:51:58;;;;;;;5.87;3.07;;;-1.10;99.90;;;;;;5052935;28;20418;-72
2023/03/28 04:54:24;;;;;;;2.90;2.37;;;-1.10;99.90;;;;;;5053202;28;20457;-72
2023/03/28 04:56:49;;;;;;;6.87;3.60;;;-1.10;99.90;;;;;;5035191;28;20540;-71
2023/03/28 04:59:16;;;;;;;5.90;3.00;;;-1.10;99.90;;;;;;5053130;28;20190;-70
2023/03/28 05:01:47;;;;;;;4.90;3.37;;;-1.10;99.90;;;;;;5053194;28;20324;-72
2023/03/28 05:04:14;;;;;;;7.60;3.70;;;-1.00;99.90;;;;;;5053453;28;20428;-71
2023/03/28 05:06:39;;;;;;;5.20;2.83;;;-1.00;99.90;;;;;;5052185;28;20987;-71
2023/03/28 05:09:05;;;;;;;4.73;2.20;;;-1.00;99.90;;;;;;5052597;28;20492;-71
2023/03/28 05:11:32;;;;;;;6.20;2.50;;;-1.00;99.90;;;;;;5052915;28;20195;-71
2023/03/28 05:13:57;;;;;;;2.17;2.07;;;-1.00;99.90;;;;;;5034322;28;20199;-71
2023/03/28 05:16:23;;;;;;;10.33;2.87;;;-1.00;99.90;;;;;;5053016;28;20437;-71
2023/03/28 05:18:48;;;;;;;4.40;2.57;;;-1.00;99.90;;;;;;5052287;28;20193;-70
2023/03/28 05:21:14;;;;;;;7.33;3.37;;;-1.00;99.90;;;;;;5034166;28;20699;-72
2023/03/28 05:23:39;;;;;;;5.50;3.23;;;-1.00;99.90;;;;;;5050560;28;20252;-72
2023/03/28 05:26:05;;;;;;;2.50;2.23;;;-1.00;99.90;;;;;;5055748;28;20203;-72
2023/03/28 05:28:31;;;;;;;3.27;2.97;;;-1.00;99.90;;;;;;5056387;28;20178;-72
2023/03/28 05:30:56;;;;;;;6.77;2.43;;;-0.90;99.90;;;;;;5052579;28;20453;-71
2023/03/28 05:33:22;;;;;;;4.00;2.50;;;-0.90;99.90;;;;;;5052989;28;20193;-70
2023/03/28 05:35:47;;;;;;;16.00;3.67;;;-0.90;99.90;;;;;;5051626;28;20694;-71
2023/03/28 05:38:13;;;;;;;5.07;2.77;;;-0.80;99.90;;;;;;5052496;28;20187;-72
2023/03/28 05:40:39;;;;;;;4.50;2.30;;;-0.80;99.90;;;;;;5052569;28;20207;-72
2023/03/28 05:43:04;;;;;;;5.70;2.20;;;-0.80;99.90;;;;;;5034567;28;20200;-70
2023/03/28 05:45:30;;;;;;;7.70;2.67;;;-0.70;99.90;;;;;;5052309;28;20223;-71
2023/03/28 05:47:56;;;;;;;2.80;2.43;;;-0.60;99.90;;;;;;5052010;28;20190;-71
2023/03/28 05:50:22;;;;;;;3.63;2.37;;;-0.50;99.90;;;;;;5052300;28;20282;-70
2023/03/28 05:52:48;;;;;;;5.77;2.27;;;-0.40;99.90;;;;;;5052333;28;20207;-71
2023/03/28 05:55:13;;;;;;;7.87;2.93;;;-0.40;99.90;;;;;;5051689;28;20422;-69
2023/03/28 05:57:39;;;;;;;2.57;2.37;;;-0.30;99.90;;;;;;5052273;28;20873;-70
2023/03/28 06:00:12;;;;;;;3.10;2.40;;;-0.10;99.90;;;;;;5051843;28;20192;-71
2023/03/28 06:02:39;;;;;;;6.43;2.77;;;0.00;99.90;;;;;;5052159;28;20412;-72
2023/03/28 06:05:06;;;;;;;2.13;1.93;;;0.20;99.90;;;;;;5051470;28;20946;-72
2023/03/28 06:07:31;;;;;;;5.27;2.40;;;0.60;99.90;;;;;;5035259;28;20449;-71
2023/03/28 06:09:57;;;;;;;5.10;2.80;;;1.10;99.90;;;;;;5051634;28;20436;-72
2023/03/28 06:12:22;;;;;;;5.70;1.90;;;2.30;99.90;;;;;;5059853;28;20572;-73
2023/03/28 06:14:48;;;;;;;6.80;2.20;;;4.30;99.90;;;;;;5052395;28;20297;-72
2023/03/28 06:17:14;;;;;;;6.60;1.80;;;6.10;99.90;;;;;;5051615;28;20622;-72
2023/03/28 06:19:40;;;;;;;2.50;2.30;;;7.70;99.90;;;;;;5051686;28;20760;-73
2023/03/28 06:22:06;;;;;;;6.47;2.30;;;9.00;99.90;;;;;;5053057;28;20448;-72
2023/03/28 06:24:31;;;;;;;6.13;1.70;;;10.00;99.90;;;;;;5058239;28;20181;-72
2023/03/28 06:26:57;;;;;;;7.70;2.30;;;10.30;99.90;;;;;;5051415;28;20212;-73
2023/03/28 06:29:23;;;;;;;2.50;1.97;;;11.50;99.90;;;;;;5056580;28;20581;-72
2023/03/28 06:31:48;;;;;;;5.97;2.00;;;11.50;99.90;;;;;;5057453;28;20736;-72
2023/03/28 06:34:14;;;;;;;5.13;1.83;;;12.60;99.90;;;;;;5052006;28;20219;-72
2023/03/28 06:36:39;;;;;;;4.10;1.70;;;13.10;99.90;;;;;;5058021;28;20188;-73
2023/03/28 06:39:05;;;;;;;4.17;2.33;;;13.60;99.90;;;;;;5057666;28;20183;-72
2023/03/28 06:41:30;;;;;;;8.60;2.80;;;14.00;99.90;;;;;;5058040;28;20201;-73
2023/03/28 06:43:56;;;;;;;11.10;2.13;;;14.30;99.90;;;;;;5041306;28;20182;-73
2023/03/28 06:46:21;;;;;;;3.80;2.57;;;14.30;99.90;;;;;;5059833;28;20212;-74
2023/03/28 06:48:47;;;;;;;2.40;1.70;;;14.60;99.90;;;;;;5050250;28;20205;-71
2023/03/28 06:51:12;;;;;;;2.63;1.80;;;15.10;99.90;;;;;;5050825;28;20669;-72
2023/03/28 06:53:38;;;;;;;9.17;2.90;;;15.10;99.90;;;;;;5051296;28;20192;-72
2023/03/28 06:56:05;;;;;;;6.13;3.70;;;15.40;99.90;;;;;;5050345;28;20239;-72
2023/03/28 06:58:31;;;;;;;5.20;2.50;;;15.70;99.90;;;;;;5051305;28;20177;-71
2023/03/28 07:00:58;;;;;;;8.37;2.47;;;15.40;99.90;;;;;;5050592;28;20865;-71
2023/03/28 07:03:23;;;;;;;11.63;2.43;;;15.40;99.90;;;;;;5054777;28;20191;-72
2023/03/28 07:05:49;;;;;;;7.33;2.43;;;14.70;99.90;;;;;;5037394;28;21042;-71
2023/03/28 07:08:15;;;;;;;6.03;2.57;;;14.00;99.90;;;;;;5050864;28;20280;-71
2023/03/28 07:10:41;;;;;;;6.43;3.00;;;13.90;99.90;;;;;;5050693;28;20774;-71
2023/03/28 07:13:07;;;;;;;8.20;2.43;;;13.20;99.90;;;;;;5050617;28;20219;-70
2023/03/28 07:15:33;;;;;;;7.83;2.53;;;12.60;99.90;;;;;;5050521;28;20428;-69
2023/03/28 07:17:58;;;;;;;3.37;2.23;;;12.50;99.90;;;;;;5050442;28;20919;-70
2023/03/28 07:20:24;;;;;;;4.43;2.47;;;12.10;99.90;;;;;;5032590;28;20943;-70
2023/03/28 07:22:50;;;;;;;9.83;2.70;;;11.80;99.90;;;;;;5050792;28;20189;-71
2023/03/28 07:25:16;;;;;;;9.80;2.50;;;11.60;99.90;;;;;;5050249;28;20950;-70
2023/03/28 07:27:42;;;;;;;7.23;2.90;;;11.30;99.90;;;;;;5050772;28;20192;-71
2023/03/28 07:30:08;;;;;;;4.70;2.40;;;11.30;99.90;;;;;;5049888;28;20439;-70
2023/03/28 07:32:35;;;;;;;5.20;1.93;;;11.40;99.90;;;;;;5050793;28;20216;-71
2023/03/28 07:35:01;;;;;;;3.93;2.23;;;11.10;99.90;;;;;;5050082;28;20428;-71
2023/03/28 07:37:26;;;;;;;3.93;2.30;;;11.20;99.90;;;;;;5050793;28;20450;-73
2023/03/28 07:39:53;;;;;;;9.23;2.63;;;11.20;99.90;;;;;;5050438;28;20193;-73
2023/03/28 07:42:19;;;;;;;8.27;2.73;;;11.20;99.90;;;;;;5050475;28;20208;-73
2023/03/28 07:44:44;;;;;;;3.80;2.40;;;11.20;99.90;;;;;;5050190;28;20982;-72
2023/03/28 07:47:11;;;;;;;7.70;2.90;;;11.40;99.90;;;;;;5050437;28;20209;-74
2023/03/28 07:49:36;;;;;;;5.40;2.63;;;11.40;99.90;;;;;;5058830;28;20192;-74
2023/03/28 07:52:03;;;;;;;7.03;2.80;;;11.50;99.90;;;;;;5050200;28;21025;-72
2023/03/28 07:54:31;;;;;;;4.50;2.40;;;11.40;99.90;;;;;;5050402;28;20284;-72
2023/03/28 07:56:57;;;;;;;9.67;3.07;;;11.20;99.90;;;;;;5050539;28;20982;-73
2023/03/28 07:59:23;;;;;;;3.17;2.63;;;11.60;99.90;;;;;;5050295;28;20431;-72
2023/03/28 08:01:48;;;;;;;7.33;2.80;;;11.40;99.90;;;;;;5050503;28;20522;-74
2023/03/28 08:04:14;;;;;;;2.80;2.60;;;11.40;99.90;;;;;;5049990;28;20598;-72
2023/03/28 08:06:40;;;;;;;6.23;2.57;;;11.90;99.90;;;;;;5050719;28;20459;-73
2023/03/28 08:09:15;;;;;;;12.27;3.03;;;11.70;99.90;;;;;;5050191;28;20569;-73
2023/03/28 08:11:42;;;;;;;8.73;2.47;;;12.00;99.90;;;;;;5056125;28;20227;-73
2023/03/28 08:14:11;;;;;;;5.87;2.60;;;12.00;99.90;;;;;;5052104;28;20432;-72
2023/03/28 08:16:38;;;;;;;4.30;2.20;;;11.70;99.90;;;;;;5055981;28;20973;-73
2023/03/28 08:19:04;;;;;;;2.73;1.77;;;11.90;99.90;;;;;;5053112;28;20451;-72
2023/03/28 08:21:30;;;;;;;5.50;2.37;;;12.10;99.90;;;;;;5058541;28;20568;-74
2023/03/28 08:23:58;;;;;;;3.70;2.50;;;11.90;99.90;;;;;;5057312;28;20434;-73
2023/03/28 08:26:25;;;;;;;2.53;2.10;;;11.80;99.90;;;;;;5050561;28;20554;-73
2023/03/28 08:28:53;;;;;;;7.30;2.80;;;12.10;99.90;;;;;;5050216;28;20420;-73
2023/03/28 08:31:22;;;;;;;8.37;2.30;;;12.30;99.90;;;;;;5050103;28;20459;-72
2023/03/28 08:33:50;;;;;;;4.50;2.00;;;12.40;99.90;;;;;;5050353;28;20525;-73
2023/03/28 08:36:16;;;;;;;5.43;2.80;;;12.60;99.90;;;;;;5058161;28;20419;-73
2023/03/28 08:38:42;;;;;;;11.53;2.30;;;12.50;99.90;;;;;;5050268;28;20789;-73
2023/03/28 08:41:39;;;;;;;4.33;2.10;;;12.70;99.90;;;;;;5050753;28;20455;-73
2023/03/28 08:44:36;;;;;;;2.00;1.80;;;12.90;99.90;;;;;;5052991;28;20442;-71
2023/03/28 08:47:27;;;;;;;6.13;3.07;;;12.70;99.90;;;;;;5053508;28;20475;-73
2023/03/28 08:50:13;;;;;;;2.27;1.97;;;13.20;99.90;;;;;;5061623;28;20420;-72
2023/03/28 08:52:40;;;;;;;3.50;2.03;;;13.70;99.90;;;;;;5053487;28;20439;-73
2023/03/28 08:55:27;;;;;;;2.83;1.67;;;13.70;99.90;;;;;;5061125;28;20427;-72
2023/03/28 08:57:54;;;;;;;4.77;1.97;;;13.50;99.90;;;;;;5053290;28;20458;-73
2023/03/28 09:00:26;;;;;;;4.17;1.63;;;13.40;99.90;;;;;;5043415;28;20436;-71
2023/03/28 09:02:52;;;;;;;5.87;1.57;;;13.50;99.90;;;;;;5053381;28;20547;-72
2023/03/28 09:05:56;;;;;;;1.33;1.17;;;13.40;99.40;;;;;;5052887;28;20428;-72
2023/03/28 09:08:36;;;;;;;3.50;1.50;;;13.50;99.90;;;;;;5031149;28;20427;-73
2023/03/28 09:11:16;;;;;;;3.37;2.10;;;13.80;99.90;;;;;;5052728;28;20455;-73
2023/03/28 09:13:54;;;;;;;2.93;1.53;;;14.10;99.90;;;;;;5061536;28;20412;-73
2023/03/28 09:16:31;;;;;;;2.37;1.57;;;14.40;98.50;;;;;;5052997;28;20420;-73
2023/03/28 09:19:14;;;;;;;7.73;1.60;;;14.70;98.50;;;;;;5061285;28;20427;-71
2023/03/28 09:21:58;;;;;;;4.50;1.63;;;14.70;98.20;;;;;;5065958;28;20454;-71
2023/03/28 09:24:33;;;;;;;2.73;1.90;;;14.80;98.60;;;;;;5052856;28;20430;-71
2023/03/28 09:27:09;;;;;;;4.90;1.93;;;14.70;96.00;;;;;;5052673;28;21064;-71
2023/03/28 09:29:38;;;;;;;2.43;1.77;;;14.80;96.70;;;;;;5052731;28;20422;-71
2023/03/28 09:32:28;;;;;;;5.53;1.70;;;14.90;95.10;;;;;;5052446;28;20459;-72
2023/03/28 09:34:54;;;;;;;5.03;1.60;;;14.80;96.60;;;;;;5052492;28;20486;-72
2023/03/28 09:37:27;;;;;;;5.03;2.10;;;14.60;92.00;;;;;;5052650;28;21145;-71
2023/03/28 09:39:55;;;;;;;6.90;2.07;;;14.20;95.60;;;;;;5052391;28;20193;-70
2023/03/28 09:42:54;;;;;;;3.33;1.60;;;13.80;95.30;;;;;;5052432;28;20462;-71
2023/03/28 09:45:45;;;;;;;2.60;1.60;;;13.90;96.00;;;;;;4999051;28;20435;-71
2023/03/28 09:48:34;;;;;;;4.80;1.20;;;13.60;96.60;;;;;;5052260;28;20459;-70
2023/03/28 09:51:01;;;;;;;2.70;1.27;;;13.80;92.80;;;;;;5060508;28;20452;-71
2023/03/28 09:53:29;;;;;;;3.77;1.53;;;13.70;90.60;;;;;;5060028;28;20981;-72
2023/03/28 09:56:00;;;;;;;2.30;1.10;;;13.80;91.30;;;;;;5058866;28;20445;-73
2023/03/28 09:58:25;;;;;;;9.60;1.93;;;14.00;92.80;;;;;;5062173;28;20461;-72
2023/03/28 10:00:52;;;;;;;4.13;1.70;;;14.60;95.20;;;;;;5052231;28;20455;-72
2023/03/28 10:03:39;;;;;;;3.07;1.40;;;14.80;93.10;;;;;;5052062;28;20200;-72
2023/03/28 10:06:18;;;;;;;1.83;1.50;;;15.20;95.30;;;;;;5051693;28;21050;-72
2023/03/28 10:08:44;;;;;;;2.83;1.70;;;15.50;96.30;;;;;;5051931;28;20450;-71
2023/03/28 10:11:14;;;;;;;9.60;1.70;;;15.30;94.50;;;;;;5060106;28;20838;-72
2023/03/28 10:13:48;;;;;;;9.00;1.40;;;15.40;94.20;;;;;;5052224;28;20645;-72
2023/03/28 10:16:34;;;;;;;5.40;1.60;;;15.40;93.40;;;;;;5051625;28;20423;-71
2023/03/28 10:19:00;;;;;;;3.07;1.70;;;14.70;91.90;;;;;;5051519;28;20435;-73
2023/03/28 10:21:30;;;;;;;4.90;1.90;;;13.70;93.90;;;;;;5051455;28;20470;-73
2023/03/28 10:24:02;;;;;;;6.63;2.07;;;12.90;94.10;;;;;;5059684;28;20207;-70
2023/03/28 10:26:28;;;;;;;3.00;1.50;;;12.20;95.20;;;;;;5051611;28;20486;-71
2023/03/28 10:28:57;;;;;;;4.63;1.60;;;11.50;96.20;;;;;;5051590;28;20792;-71
2023/03/28 10:31:29;;;;;;;3.43;1.63;;;11.10;96.30;;;;;;5051124;28;20465;-71
2023/03/28 10:33:57;;;;;;;4.80;1.30;;;11.00;98.70;;;;;;5050481;28;20428;-70
2023/03/28 10:36:31;;;;;;;5.70;2.23;;;10.90;97.90;;;;;;5051356;28;20423;-72
2023/03/28 10:38:57;;;;;;;2.70;1.83;;;10.90;97.20;;;;;;5051511;28;20478;-72
2023/03/28 10:41:26;;;;;;;2.90;1.50;;;10.80;96.50;;;;;;5050904;28;20443;-73
2023/03/28 10:43:53;;;;;;;4.00;1.60;;;10.60;95.30;;;;;;5051163;28;20943;-72
2023/03/28 10:46:34;;;;;;;3.33;1.80;;;10.40;99.00;;;;;;5060232;28;20873;-70
2023/03/28 10:49:07;;;;;;;2.53;2.10;;;10.80;98.80;;;;;;5062889;28;21019;-72
2023/03/28 10:51:35;;;;;;;2.57;2.47;;;11.00;97.10;;;;;;5051217;28;20435;-71
2023/03/28 10:54:23;;;;;;;1.47;1.37;;;12.10;99.90;;;;;;5050845;28;20439;-71
2023/03/28 10:57:07;;;;;;;3.60;1.63;;;13.00;96.10;;;;;;5059448;28;20466;-74
2023/03/28 10:59:50;;;;;;;1.90;1.40;;;13.70;93.70;;;;;;5050874;28;20415;-72
2023/03/28 11:02:44;;;;;;;4.23;1.70;;;14.00;93.50;;;;;;5051577;28;20521;-72
2023/03/28 11:05:45;;;;;;;2.90;1.60;;;14.00;87.80;;;;;;5053376;28;20490;-71
2023/03/28 11:08:11;;;;;;;6.53;1.70;;;13.40;87.70;;;;;;5016933;28;20451;-71
2023/03/28 11:10:41;;;;;;;9.60;2.47;;;12.80;93.40;;;;;;5059278;28;20420;-71
2023/03/28 11:13:40;;;;;;;4.30;2.03;;;12.70;96.10;;;;;;5050788;28;20432;-72
2023/03/28 11:16:24;;;;;;;3.40;1.73;;;13.10;95.90;;;;;;5058875;28;20435;-71
2023/03/28 11:19:27;;;;;;;2.53;2.00;;;13.70;97.20;;;;;;5059336;28;20826;-72
2023/03/28 11:22:19;;;;;;;5.50;2.10;;;13.80;94.50;;;;;;5023459;28;20463;-72
2023/03/28 11:24:59;;;;;;;2.30;1.60;;;13.50;94.10;;;;;;5050528;28;20493;-72
2023/03/28 11:27:46;;;;;;;2.20;2.00;;;13.00;93.10;;;;;;5050519;28;20471;-71
2023/03/28 11:30:16;;;;;;;4.60;1.83;;;12.40;94.70;;;;;;5050008;28;20462;-71
2023/03/28 11:32:55;;;;;;;3.50;1.90;;;12.50;97.50;;;;;;5050636;28;20817;-72
2023/03/28 11:35:25;;;;;;;6.37;1.90;;;12.60;96.40;;;;;;5058622;28;20427;-71
2023/03/28 11:38:02;;;;;;;6.37;2.63;;;12.40;96.10;;;;;;5050576;28;20519;-71
2023/03/28 11:40:45;;;;;;;1.70;1.60;;;11.90;96.80;;;;;;5050354;28;20511;-72
2023/03/28 11:43:25;;;;;;;2.03;1.83;;;12.40;97.30;;;;;;5050547;28;20467;-71
2023/03/28 11:45:55;;;;;;;4.70;2.00;;;12.20;95.70;;;;;;5056582;28;20471;-72
2023/03/28 11:48:35;;;;;;;1.93;1.60;;;12.30;95.70;;;;;;5050461;28;20427;-71
2023/03/28 11:51:10;;;;;;;4.57;1.67;;;12.60;94.50;;;;;;5050129;28;20447;-72
2023/03/28 11:53:38;;;;;;;3.67;1.90;;;12.60;96.10;;;;;;5050423;28;20423;-72
2023/03/28 11:56:14;;;;;;;2.77;2.00;;;12.80;94.00;;;;;;5057024;28;20470;-72
2023/03/28 11:58:44;;;;;;;6.40;1.80;;;12.90;91.80;;;;;;5033347;28;20850;-72
2023/03/28 12:01:20;;;;;;;4.13;1.67;;;12.60;92.30;;;;;;5051295;28;20456;-72
2023/03/28 12:04:01;;;;;;;2.67;1.83;;;12.80;90.90;;;;;;5058766;28;20516;-72
2023/03/28 12:07:04;;;;;;;3.50;1.67;;;12.50;90.30;;;;;;5050185;28;20552;-72
2023/03/28 12:09:36;;;;;;;1.83;1.70;;;11.80;90.00;;;;;;5050168;28;20480;-73
2023/03/28 12:12:28;;;;;;;5.63;1.70;;;11.70;91.60;;;;;;5050254;28;20447;-72
2023/03/28 12:15:04;;;;;;;2.30;1.40;;;11.80;87.90;;;;;;5055969;28;20422;-72
2023/03/28 12:17:38;;;;;;;3.00;1.30;;;11.70;88.80;;;;;;5055368;28;20423;-73
2023/03/28 12:20:12;;;;;;;3.63;2.00;;;11.70;84.50;;;;;;5054000;28;20427;-72
2023/03/28 12:22:46;;;;;;;3.57;1.90;;;11.80;86.00;;;;;;5053893;28;20509;-73
2023/03/28 12:25:13;;;;;;;2.30;1.67;;;11.60;89.20;;;;;;5053611;28;20484;-71
2023/03/28 12:27:55;;;;;;;1.83;1.27;;;11.70;91.40;;;;;;5062034;28;20428;-72
2023/03/28 12:30:35;;;;;;;2.53;1.40;;;11.80;92.30;;;;;;5053607;28;20424;-71
2023/03/28 12:33:20;;;;;;;4.13;2.27;;;11.80;90.10;;;;;;5053719;28;20542;-72
2023/03/28 12:35:48;;;;;;;4.90;1.27;;;11.70;91.00;;;;;;5053463;28;20469;-72
2023/03/28 12:38:32;;;;;;;6.90;1.90;;;11.60;94.00;;;;;;5053904;28;20431;-72
2023/03/28 12:41:04;;;;;;;1.93;1.70;;;11.60;90.80;;;;;;5053413;28;20546;-73
2023/03/28 12:43:35;;;;;;;2.40;1.70;;;11.60;88.90;;;;;;5061889;28;20485;-72
2023/03/28 12:46:04;;;;;;;2.63;2.43;;;11.40;88.70;;;;;;5053152;28;20471;-73
2023/03/28 12:48:32;;;;;;;1.63;1.37;;;11.30;90.60;;;;;;5035571;28;20500;-72
2023/03/28 12:51:05;;;;;;;1.83;1.50;;;11.40;91.30;;;;;;5053337;28;20451;-72
2023/03/28 12:53:32;;;;;;;3.67;1.80;;;11.20;89.10;;;;;;5053385;28;20459;-72
2023/03/28 12:55:58;;;;;;;1.40;1.30;;;11.20;86.40;;;;;;5061201;28;20469;-71
2023/03/28 12:58:28;;;;;;;6.10;1.60;;;11.20;86.60;;;;;;5061579;28;20428;-71
2023/03/28 13:01:06;;;;;;;4.60;1.60;;;11.20;88.70;;;;;;5053094;28;20459;-72
2023/03/28 13:04:03;;;;;;;1.60;1.50;;;11.30;91.80;;;;;;5053169;28;20467;-71
2023/03/28 13:06:41;;;;;;;6.03;1.83;;;11.50;92.00;;;;;;5052852;28;20467;-72
2023/03/28 13:09:33;;;;;;;10.73;2.10;;;11.60;90.50;;;;;;5053128;28;20944;-72
2023/03/28 13:12:05;;;;;;;5.43;2.00;;;11.70;92.60;;;;;;5052950;28;20455;-72
2023/03/28 13:14:39;;;;;;;3.30;1.57;;;11.50;92.90;;;;;;5061023;28;20420;-72
2023/03/28 13:17:22;;;;;;;5.40;1.80;;;11.40;94.60;;;;;;5043348;28;20443;-72
2023/03/28 13:20:09;;;;;;;3.60;1.90;;;11.30;92.40;;;;;;5053677;28;20506;-72
2023/03/28 13:23:01;;;;;;;3.57;1.70;;;11.10;92.40;;;;;;5053603;28;20455;-73
2023/03/28 13:25:31;;;;;;;2.70;1.90;;;11.10;93.40;;;;;;5044196;28;20447;-73
2023/03/28 13:28:26;;;;;;;6.87;1.87;;;11.10;91.70;;;;;;5061803;28;20455;-73
2023/03/28 13:31:25;;;;;;;4.90;1.90;;;10.90;91.30;;;;;;5051677;28;20512;-73
2023/03/28 13:33:58;;;;;;;3.33;1.73;;;10.80;93.30;;;;;;5060096;28;20435;-72
2023/03/28 13:36:26;;;;;;;2.30;1.77;;;10.70;91.30;;;;;;5061022;28;20831;-73
2023/03/28 13:39:07;;;;;;;2.30;1.67;;;10.60;91.00;;;;;;5052588;28;20542;-73
2023/03/28 13:41:44;;;;;;;2.73;2.33;;;10.60;92.00;;;;;;5060647;28;20500;-73
2023/03/28 13:44:17;;;;;;;2.30;1.77;;;10.60;92.60;;;;;;5060692;28;20488;-72
2023/03/28 13:46:51;;;;;;;4.20;1.87;;;10.80;92.80;;;;;;5052577;28;20505;-72
2023/03/28 13:49:31;;;;;;;4.47;1.77;;;10.70;94.10;;;;;;5052638;28;20442;-73
2023/03/28 13:52:03;;;;;;;5.43;1.70;;;10.80;92.00;;;;;;5059229;28;20513;-72
2023/03/28 13:54:29;;;;;;;1.87;1.60;;;10.80;94.20;;;;;;5051043;28;20963;-73
2023/03/28 13:57:20;;;;;;;3.73;1.90;;;10.90;92.50;;;;;;5055797;28;21093;-73
2023/03/28 13:59:50;;;;;;;4.33;1.80;;;11.00;92.90;;;;;;5040923;28;20459;-70
2023/03/28 14:02:19;;;;;;;3.67;1.60;;;10.90;91.70;;;;;;5052607;28;20827;-73
2023/03/28 14:04:54;;;;;;;4.30;1.70;;;10.70;92.20;;;;;;5050954;28;20471;-72
2023/03/28 14:07:29;;;;;;;5.47;2.00;;;10.80;92.10;;;;;;5034774;28;20490;-72
2023/03/28 14:09:56;;;;;;;7.20;1.83;;;11.00;92.60;;;;;;5050908;28;20458;-72
2023/03/28 14:12:24;;;;;;;4.00;2.07;;;10.90;91.80;;;;;;5067619;28;20483;-73
2023/03/28 14:14:59;;;;;;;2.10;1.90;;;11.00;91.30;;;;;;5064959;28;20482;-73
2023/03/28 14:17:28;;;;;;;2.03;1.70;;;11.00;92.20;;;;;;5051546;28;20506;-72
2023/03/28 14:20:04;;;;;;;2.57;2.23;;;11.00;91.90;;;;;;5050778;28;20452;-72
2023/03/28 14:22:32;;;;;;;2.47;1.70;;;11.00;91.90;;;;;;5049637;28;20479;-71
2023/03/28 14:25:03;;;;;;;3.40;1.93;;;11.00;90.70;;;;;;5060729;28;20484;-72
2023/03/28 14:27:39;;;;;;;3.70;1.87;;;10.90;90.20;;;;;;5050491;28;20475;-71
2023/03/28 14:30:24;;;;;;;3.53;2.00;;;10.70;90.10;;;;;;5050950;28;21066;-71
2023/03/28 14:33:05;;;;;;;3.53;1.60;;;10.60;89.20;;;;;;5057904;28;20631;-72
2023/03/28 14:35:33;;;;;;;4.93;1.70;;;10.70;88.60;;;;;;5053050;28;20494;-71
2023/03/28 14:38:05;;;;;;;5.03;1.83;;;10.80;91.00;;;;;;5050328;28;20872;-72
2023/03/28 14:40:37;;;;;;;1.80;1.70;;;10.70;90.00;;;;;;5058719;28;20550;-72
2023/03/28 14:43:05;;;;;;;8.30;1.83;;;10.70;89.60;;;;;;5050178;28;20462;-73